Riverton, WV (26814)

5:56 PM EDT on July 22, 2014 (GMT -0400)
High Mountain (KWVHARMA3) Elev 3766 ft | 38.92 °N, 79.48 °W | Change Station

Current weather conditions updated 9 minutes ago

Mostly Cloudy
Mostly Cloudy
73.8 °F
Feels Like 76 °F
N
-
Wind Variable Wind from North

Tomorrow is forecast to be nearly the same temperature as today. Showers and thunderstorms tomorrow night.

Today
High -- | Low -- °F
--% Chance of Precip.
Yesterday
High -- | Low -- °F
Precip. -- in
6:10 AM 8:37 PM
Waning Crescent, 15% visible
Pressure 30.10 in
Visibility 10.0 miles
Clouds Few 11000 ft
Heat Index 76 °F
Dew Point 61 °F
Humidity 64%
Rainfall 0.00 in
Snow Depth Not available.
UV 3 out of 12
Pollen 4.10 out of 12
Air Quality Not available.
Flu Activity Not available.
METAR KEKN 222151Z AUTO 32005KT 10SM FEW110 28/19 A3013 RMK AO2 SLP192 T02780189 TSNO

More Conditions Fewer Conditions

Pressure 30.10 in
Visibility 10.0 miles
Clouds Few 11000 ft
Heat Index 76 °F
Dew Point 61 °F
Humidity 64%
Rainfall 0.00 in
Snow Depth Not available.
UV 3 out of 12
Pollen 4.10 out of 12
Air Quality Not available.
Flu Activity Not available.
METAR KEKN 222151Z AUTO 32005KT 10SM FEW110 28/19 A3013 RMK AO2 SLP192 T02780189 TSNO

More Conditions Fewer Conditions

10-Day Weather Forecast

Almanac

Astronomy

Jul. 22, 2014 Rise Set
Actual Time 6:10 AM EDT 8:37 PM EDT
Civil Twilight 5:40 AM EDT 9:07 PM EDT
Nautical Twilight 5:02 AM EDT 9:45 PM EDT
Astronomical Twilight 4:20 AM EDT 10:27 PM EDT
Moon 2:42 AM EDT 5:14 PM EDT
Length of Visible Light 15h 27m
Length of Day
14h 26m
Tomorrow will be 1m 35s shorter.
Waning Crescent, 15% of the Moon is Illuminated
Today
Waning Crescent
Jul 26
New
Aug 3
First Quarter
Aug 10
Full
Aug 17
Last Quarter

Today's Extremes

State Highs State Lows

Community

WunderPhotos

Upload Photos

1,736,363 photos uploaded!

Nearby

Snow Depth

Station Depth Elevation
No new snow has been reported.

Earthquake Activity

City Distance Mag. Time & Date
No recent earthquake activity has been reported nearby.
Minimum magnitude displayed is 2.5.

Coastal Water Temperatures

Place Temperature
No Stations Reporting

Nearby Weather Stations

Station Location Temp. Heat Index Dew Point Humidity Wind Precip. Elev Updated Type
High Mountain, Harman, WV 73.8 °F 76 °F 61 °F 64% North  at  - 0.00 in / hr 3766 ft 5:47 PM EDT Normal
Alpena, Bowden, WV 79.4 °F 77 °F 18 °F - NE  at  0.0 mph 0.00 in / hr 2848 ft 5:56 PM EDT Rapid Fire
Hertig Knob, Alpena, WV 78.1 °F 80 °F 62 °F 58% South  at  0.0 mph 0.00 in / hr 2838 ft 5:56 PM EDT Rapid Fire
Dogs Run Farm, Dryfork, WV 80.2 °F 83 °F 69 °F 69% West  at  0.0 mph - / hr 2910 ft 5:49 PM EDT Normal
Monterey, VA 79.8 °F 82 °F 67 °F 65% SSE  at  10.0 mph 0.00 in / hr 2924 ft 5:54 PM EDT Normal
RAWS UPPER TRACT WV, Upper Tract, WV 89 °F 92 °F 67 °F 49% South  at  4 mph 0.00 in / hr 1705 ft 5:17 PM EDT MADIS

Show More Stations Show Fewer Stations